Time;durP1;ratioP1;P1;durP2;ratioP2;P2;SDS_P1;SDS_P2;PMS_P1;PMS_P2;Temp;Humidity;BMP_temperature;BMP_pressure;BME280_temperature;BME280_humidity;BME280_pressure;Samples;Min_cycle;Max_cycle;Signal;HPM_P1;HPM_P2
2021/06/30 00:02:14;;;;;;;4.40;0.95;;;;;;;10.93;100.00;100042.31;6201722;23;20007;-63
2021/06/30 00:05:17;;;;;;;4.18;1.30;;;;;;;10.91;100.00;100046.81;6200481;23;20015;-63
2021/06/30 00:08:21;;;;;;;4.93;1.75;;;;;;;10.91;100.00;100041.25;6200159;23;20047;-63
2021/06/30 00:11:26;;;;;;;4.47;1.60;;;;;;;10.89;100.00;100036.16;6203864;23;20357;-63
2021/06/30 00:14:30;;;;;;;2.22;1.33;;;;;;;10.88;100.00;100039.38;6255290;23;20068;-64
2021/06/30 00:17:33;;;;;;;5.90;2.20;;;;;;;10.83;100.00;100037.28;6255914;23;20019;-63
2021/06/30 00:20:37;;;;;;;1.02;0.80;;;;;;;10.77;100.00;100053.06;6255570;23;20356;-59
2021/06/30 00:23:42;;;;;;;16.63;1.90;;;;;;;10.67;100.00;100052.34;6256212;23;20027;-60
2021/06/30 00:26:46;;;;;;;2.38;1.55;;;;;;;10.62;100.00;100042.63;6256285;23;20016;-60
2021/06/30 00:29:50;;;;;;;7.20;1.63;;;;;;;10.60;100.00;100047.13;6256081;23;20023;-60
2021/06/30 00:32:54;;;;;;;6.13;1.77;;;;;;;10.57;100.00;100043.25;6256143;23;20027;-59
2021/06/30 00:35:58;;;;;;;6.43;2.15;;;;;;;10.55;100.00;100050.53;6256580;23;20066;-60
2021/06/30 00:39:04;;;;;;;3.03;1.38;;;;;;;10.49;100.00;100052.44;6256281;23;20046;-63
2021/06/30 00:42:08;;;;;;;3.17;1.77;;;;;;;10.44;100.00;100050.28;6256582;23;20023;-63
2021/06/30 00:45:16;;;;;;;4.70;1.45;;;;;;;10.34;100.00;100051.56;6255915;23;20031;-63
2021/06/30 00:48:20;;;;;;;6.18;1.67;;;;;;;10.31;100.00;100050.47;6256535;23;20027;-63
2021/06/30 00:51:25;;;;;;;2.30;1.23;;;;;;;10.26;100.00;100045.56;6267129;22;20463;-60
2021/06/30 00:54:30;;;;;;;2.92;1.10;;;;;;;10.21;100.00;100042.63;6286914;22;20026;-59
2021/06/30 00:57:33;;;;;;;2.67;1.75;;;;;;;10.20;100.00;100041.09;6267520;22;20038;-59
2021/06/30 01:00:37;;;;;;;3.83;1.50;;;;;;;10.20;100.00;100039.06;6287014;22;20077;-60
2021/06/30 01:03:41;;;;;;;6.82;1.92;;;;;;;10.16;100.00;100041.25;6287113;22;20023;-60
2021/06/30 01:06:44;;;;;;;3.42;1.58;;;;;;;10.10;100.00;100037.53;6287420;22;20026;-60
2021/06/30 01:09:48;;;;;;;4.18;1.92;;;;;;;10.03;100.00;100035.06;6267899;22;20018;-60
2021/06/30 01:12:52;;;;;;;7.53;1.50;;;;;;;9.99;100.00;100040.03;6287346;22;20023;-60
2021/06/30 01:15:56;;;;;;;3.00;1.80;;;;;;;9.96;100.00;100032.63;6287038;22;20044;-60
2021/06/30 01:19:00;;;;;;;2.60;1.08;;;;;;;9.91;100.00;100031.25;6286980;22;20027;-59
2021/06/30 01:22:05;;;;;;;6.60;1.92;;;;;;;9.87;100.00;100035.41;6267796;22;20022;-60
2021/06/30 01:25:10;;;;;;;2.47;1.40;;;;;;;9.86;100.00;100034.66;6287084;22;20333;-62
2021/06/30 01:28:15;;;;;;;6.63;1.83;;;;;;;9.83;100.00;100037.59;6287061;22;20023;-63
2021/06/30 01:31:19;;;;;;;2.53;1.60;;;;;;;9.81;100.00;100032.47;6286779;22;20026;-63
2021/06/30 01:34:22;;;;;;;4.18;1.25;;;;;;;9.74;100.00;100032.81;6267626;22;20455;-62
2021/06/30 01:37:26;;;;;;;6.88;2.38;;;;;;;9.64;100.00;100031.28;6286632;22;20026;-63
2021/06/30 01:40:30;;;;;;;3.55;2.10;;;;;;;9.61;100.00;100031.44;6286885;22;20019;-62
2021/06/30 01:43:34;;;;;;;3.30;1.15;;;;;;;9.58;100.00;100035.13;6286597;22;20027;-62
2021/06/30 01:46:38;;;;;;;2.13;1.08;;;;;;;9.52;100.00;100026.66;6286417;22;20023;-62
2021/06/30 01:49:43;;;;;;;5.25;1.42;;;;;;;9.43;100.00;100023.09;6286398;22;20391;-63
2021/06/30 01:52:50;;;;;;;2.25;1.17;;;;;;;9.39;100.00;100014.91;6286671;22;20034;-59
2021/06/30 01:55:54;;;;;;;2.95;1.08;;;;;;;9.39;100.00;100016.91;6286444;22;20349;-62
2021/06/30 01:58:58;;;;;;;3.08;1.95;;;;;;;9.35;100.00;100011.53;6286548;22;20023;-63
2021/06/30 02:02:03;;;;;;;5.70;2.20;;;;;;;9.33;100.00;100010.44;6285266;22;20027;-63
2021/06/30 02:05:09;;;;;;;4.25;2.00;;;;;;;9.33;100.00;100014.00;6286056;22;20039;-63
2021/06/30 02:08:12;;;;;;;5.38;2.17;;;;;;;9.33;100.00;100014.00;6286414;22;20026;-63
2021/06/30 02:11:17;;;;;;;6.88;2.15;;;;;;;9.31;100.00;100010.13;6286150;22;20042;-63
2021/06/30 02:14:20;;;;;;;14.88;2.08;;;;;;;9.25;100.00;100012.00;6286726;22;20023;-60
2021/06/30 02:17:24;;;;;;;6.95;1.67;;;;;;;9.20;100.00;100007.81;6286074;22;20061;-59
2021/06/30 02:20:28;;;;;;;3.20;0.73;;;;;;;9.26;100.00;100007.97;6284667;22;20455;-60
2021/06/30 02:23:31;;;;;;;3.92;1.40;;;;;;;9.18;100.00;99995.63;6285950;22;20340;-60
2021/06/30 02:26:35;;;;;;;3.17;1.38;;;;;;;9.05;100.00;99993.75;6286659;22;20483;-59
2021/06/30 02:29:38;;;;;;;3.42;1.42;;;;;;;9.05;100.00;99996.53;6286654;22;20022;-59
2021/06/30 02:32:42;;;;;;;10.32;2.38;;;;;;;9.02;100.00;99999.47;6286315;22;20027;-60
2021/06/30 02:35:45;;;;;;;7.60;1.85;;;;;;;8.93;100.00;100002.22;6286224;22;20439;-60
2021/06/30 02:38:49;;;;;;;2.03;1.30;;;;;;;8.89;100.00;100010.72;6286295;22;20026;-59
2021/06/30 02:41:52;;;;;;;3.60;1.90;;;;;;;8.85;100.00;100012.88;6286541;22;20019;-59
2021/06/30 02:44:55;;;;;;;3.70;1.50;;;;;;;8.77;100.00;100003.25;6286685;22;20344;-59
2021/06/30 02:48:00;;;;;;;2.38;1.73;;;;;;;8.75;100.00;100008.50;6285857;22;20022;-59
2021/06/30 02:51:04;;;;;;;3.10;1.17;;;;;;;8.75;100.00;100016.09;6281886;22;20030;-62
2021/06/30 02:54:08;;;;;;;2.03;1.27;;;;;;;8.69;100.00;100013.13;6286537;22;20023;-62
2021/06/30 02:57:11;;;;;;;4.45;1.67;;;;;;;8.69;100.00;100012.34;6286435;22;20019;-62
2021/06/30 03:00:16;;;;;;;1.33;1.08;;;;;;;8.64;100.00;100024.06;6286067;22;20026;-62
2021/06/30 03:03:21;;;;;;;4.45;1.83;;;;;;;8.66;100.00;100024.38;6286264;22;20026;-62
2021/06/30 03:06:24;;;;;;;5.03;1.20;;;;;;;8.61;100.00;100031.31;6286377;22;20022;-62
2021/06/30 03:09:28;;;;;;;1.83;1.45;;;;;;;8.52;100.00;100025.72;6286121;22;20023;-62
2021/06/30 03:12:33;;;;;;;2.13;1.10;;;;;;;8.46;100.00;100019.22;6285845;22;20329;-62
2021/06/30 03:15:36;;;;;;;5.60;2.25;;;;;;;8.41;100.00;100022.59;6286299;22;20022;-62
2021/06/30 03:18:40;;;;;;;2.83;1.30;;;;;;;8.35;100.00;100013.31;6286140;22;20027;-59
2021/06/30 03:21:43;;;;;;;7.15;2.67;;;;;;;8.36;100.00;100014.84;6286297;22;20034;-59
2021/06/30 03:24:47;;;;;;;1.67;1.35;;;;;;;8.32;100.00;100019.78;6285763;22;20344;-60
2021/06/30 03:27:50;;;;;;;3.28;1.52;;;;;;;8.30;100.00;100013.91;6286164;22;20022;-60
2021/06/30 03:30:54;;;;;;;2.50;1.00;;;;;;;8.24;100.00;100018.47;6286095;22;20039;-60
2021/06/30 03:33:57;;;;;;;4.07;1.60;;;;;;;8.24;100.00;100024.81;6286484;22;20026;-59
2021/06/30 03:37:01;;;;;;;1.33;1.15;;;;;;;8.20;100.00;100026.19;6285621;22;20022;-60
2021/06/30 03:40:05;;;;;;;4.40;1.73;;;;;;;8.16;100.00;100028.31;6286067;22;20027;-60
2021/06/30 03:43:08;;;;;;;1.30;1.30;;;;;;;8.07;100.00;100033.81;6286047;22;20023;-59
2021/06/30 03:46:12;;;;;;;4.72;1.75;;;;;;;8.06;100.00;100029.47;6286096;22;20023;-60
2021/06/30 03:49:16;;;;;;;2.38;1.27;;;;;;;7.99;100.00;100032.53;6285901;22;20022;-59
2021/06/30 03:52:20;;;;;;;5.82;1.90;;;;;;;7.98;100.00;100039.31;6276405;22;20026;-59
2021/06/30 03:55:23;;;;;;;2.33;1.85;;;;;;;7.94;100.00;100047.75;6286106;22;20325;-59
2021/06/30 03:58:26;;;;;;;1.27;1.20;;;;;;;7.88;100.00;100046.03;6286104;22;20026;-60
2021/06/30 04:01:29;;;;;;;1.90;1.17;;;;;;;7.81;100.00;100041.50;6285701;22;20022;-60
2021/06/30 04:04:33;;;;;;;7.60;1.48;;;;;;;7.79;100.00;100048.72;6286085;22;20455;-59
2021/06/30 04:07:36;;;;;;;6.70;1.77;;;;;;;7.80;100.00;100044.72;6267244;22;20023;-60
2021/06/30 04:10:40;;;;;;;3.15;1.58;;;;;;;7.80;100.00;100045.50;6285567;22;20030;-60
2021/06/30 04:13:44;;;;;;;3.72;1.77;;;;;;;7.80;100.00;100053.03;6266355;22;20026;-60
2021/06/30 04:16:48;;;;;;;2.22;1.17;;;;;;;7.74;100.00;100049.31;6285879;22;20027;-60
2021/06/30 04:19:51;;;;;;;4.68;2.38;;;;;;;7.80;100.00;100050.25;6285263;22;20026;-60
2021/06/30 04:22:55;;;;;;;2.40;1.23;;;;;;;7.79;100.00;100054.28;6285757;22;20018;-60
2021/06/30 04:25:58;;;;;;;8.13;2.30;;;;;;;7.79;100.00;100054.28;6285421;22;20023;-60
2021/06/30 04:29:03;;;;;;;4.07;1.73;;;;;;;7.81;100.00;100054.59;6286579;22;20023;-60
2021/06/30 04:32:06;;;;;;;7.75;1.98;;;;;;;7.81;100.00;100057.38;6287548;22;20019;-60
2021/06/30 04:35:10;;;;;;;5.30;2.08;;;;;;;7.85;100.00;100041.38;6287922;22;20026;-60
2021/06/30 04:38:14;;;;;;;5.53;2.63;;;;;;;7.93;100.00;100042.66;6287561;22;20022;-60
2021/06/30 04:41:17;;;;;;;2.50;2.38;;;;;;;7.96;100.00;100044.53;6287268;22;20038;-60
2021/06/30 04:44:21;;;;;;;2.88;1.67;;;;;;;8.01;100.00;100049.50;6287277;22;20018;-60
2021/06/30 04:47:24;;;;;;;5.07;2.10;;;;;;;8.08;100.00;100054.75;6287126;22;20027;-60
2021/06/30 04:50:27;;;;;;;12.32;2.40;;;;;;;8.07;100.00;100053.22;6285150;22;20038;-60
2021/06/30 04:53:31;;;;;;;6.07;2.88;;;;;;;8.10;100.00;100053.06;6268775;22;20027;-59
2021/06/30 04:56:41;;;;;;;5.72;2.00;;;;;;;8.20;100.00;100051.16;6287449;22;20022;-60
2021/06/30 04:59:45;;;;;;;3.08;1.40;;;;;;;8.26;100.00;100060.44;6287217;22;20034;-60
2021/06/30 05:02:49;;;;;;;3.00;1.35;;;;;;;8.37;100.00;100066.34;6287220;22;20015;-61
2021/06/30 05:05:56;;;;;;;6.13;1.63;;;;;;;8.49;100.00;100065.47;6287087;22;20026;-62
2021/06/30 05:09:00;;;;;;;4.28;1.33;;;;;;;8.63;100.00;100059.38;6287187;22;20031;-62
2021/06/30 05:12:04;;;;;;;2.70;1.63;;;;;;;8.72;100.00;100067.75;6287118;22;20022;-62
2021/06/30 05:15:08;;;;;;;3.03;1.52;;;;;;;8.81;100.00;100062.22;6287049;22;20349;-62
2021/06/30 05:18:12;;;;;;;3.97;1.92;;;;;;;8.90;100.00;100067.03;6287384;22;20341;-62
2021/06/30 05:21:16;;;;;;;11.80;3.28;;;;;;;8.98;100.00;100062.72;6287059;22;20337;-63
2021/06/30 05:24:23;;;;;;;2.50;1.85;;;;;;;9.03;100.00;100062.88;6286818;22;20086;-62
2021/06/30 05:27:26;;;;;;;6.88;2.17;;;;;;;9.15;100.00;100064.00;6286466;22;20042;-62
2021/06/30 05:30:30;;;;;;;6.38;2.25;;;;;;;9.24;100.00;100068.78;6286829;22;20027;-62
2021/06/30 05:33:34;;;;;;;6.25;2.90;;;;;;;9.32;100.00;100068.03;6286657;22;20015;-62
2021/06/30 05:36:37;;;;;;;3.58;1.70;;;;;;;9.40;100.00;100076.84;6286937;22;20026;-62
2021/06/30 05:39:40;;;;;;;6.07;2.10;;;;;;;9.47;100.00;100068.97;6286188;22;20030;-62
2021/06/30 05:42:44;;;;;;;8.02;1.33;;;;;;;9.57;100.00;100066.97;6286987;22;20325;-62
2021/06/30 05:45:48;;;;;;;6.30;2.50;;;;;;;9.66;100.00;100064.94;6287094;22;20045;-62
2021/06/30 05:48:51;;;;;;;8.18;2.25;;;;;;;9.81;100.00;100057.50;6287020;22;20027;-62
2021/06/30 05:51:55;;;;;;;8.00;2.40;;;;;;;9.92;100.00;100073.72;6278625;22;20059;-62
2021/06/30 05:54:58;;;;;;;10.73;2.67;;;;;;;10.03;100.00;100076.81;6287051;22;20023;-62
2021/06/30 05:58:02;;;;;;;9.20;2.15;;;;;;;10.15;100.00;100067.53;6286249;22;20020;-62
2021/06/30 06:01:07;;;;;;;9.50;2.65;;;;;;;10.37;100.00;100078.47;6287007;22;20030;-62
2021/06/30 06:04:10;;;;;;;15.98;2.88;;;;;;;10.62;100.00;100073.25;6286709;22;20022;-62
2021/06/30 06:07:14;;;;;;;9.30;3.65;;;;;;;11.00;100.00;100069.81;6286880;22;20019;-62
2021/06/30 06:10:18;;;;;;;13.57;4.22;;;;;;;11.22;100.00;100070.31;6286630;22;20078;-62
2021/06/30 06:13:22;;;;;;;20.17;4.97;;;;;;;11.43;100.00;100079.63;6285852;22;20020;-62
2021/06/30 06:16:25;;;;;;;15.15;3.97;;;;;;;11.60;100.00;100080.72;6266506;22;20020;-62
2021/06/30 06:19:28;;;;;;;10.10;4.35;;;;;;;11.79;100.00;100079.34;6285308;22;20024;-62
2021/06/30 06:22:31;;;;;;;17.23;3.30;;;;;;;11.89;100.00;100078.00;6285856;22;20016;-63
2021/06/30 06:25:35;;;;;;;18.55;3.75;;;;;;;12.04;100.00;100076.00;6284885;22;20016;-62
2021/06/30 06:28:38;;;;;;;10.15;4.28;;;;;;;12.26;100.00;100072.09;6284488;22;20505;-63
2021/06/30 06:31:45;;;;;;;9.20;3.47;;;;;;;12.43;100.00;100065.50;6284780;22;20024;-62
2021/06/30 06:34:48;;;;;;;10.98;2.75;;;;;;;12.60;100.00;100063.00;6285150;22;20023;-63
2021/06/30 06:37:52;;;;;;;10.13;3.33;;;;;;;12.77;100.00;100061.22;6285010;22;20440;-62
2021/06/30 06:40:56;;;;;;;9.13;4.28;;;;;;;12.86;100.00;100063.91;6284873;22;20019;-63
2021/06/30 06:43:59;;;;;;;13.07;3.83;;;;;;;12.85;100.00;100062.34;6285920;22;20030;-63
2021/06/30 06:47:03;;;;;;;23.95;3.70;;;;;;;12.85;100.00;100067.94;6286313;22;20023;-63
2021/06/30 06:50:07;;;;;;;11.75;3.65;;;;;;;12.89;100.00;100068.50;6286058;22;20019;-63
2021/06/30 06:53:11;;;;;;;8.20;2.85;;;;;;;12.93;100.00;100055.09;6285665;22;20023;-63
2021/06/30 06:56:18;;;;;;;6.43;2.70;;;;;;;12.91;100.00;100060.41;6286173;22;20026;-63
2021/06/30 06:59:22;;;;;;;9.07;3.75;;;;;;;12.83;100.00;100059.28;6286127;22;20031;-63
2021/06/30 07:02:25;;;;;;;14.18;2.63;;;;;;;12.73;100.00;100055.81;6286466;22;20035;-63
2021/06/30 07:05:29;;;;;;;11.18;3.50;;;;;;;12.67;100.00;100062.56;6286048;22;20012;-63
2021/06/30 07:08:33;;;;;;;10.77;2.42;;;;;;;12.75;100.00;100069.31;6286480;22;20019;-63
2021/06/30 07:11:36;;;;;;;13.00;3.58;;;;;;;12.82;100.00;100074.53;6285740;22;20019;-63
2021/06/30 07:14:40;;;;;;;15.70;3.20;;;;;;;12.98;100.00;100059.22;6286419;22;20019;-63
2021/06/30 07:17:43;;;;;;;11.25;4.22;;;;;;;13.20;100.00;100063.13;6285932;22;20020;-63
2021/06/30 07:20:47;;;;;;;8.90;3.72;;;;;;;13.42;100.00;100060.63;6286267;22;20023;-63
2021/06/30 07:23:50;;;;;;;12.95;4.43;;;;;;;13.58;100.00;100060.03;6286106;22;20023;-63
2021/06/30 07:26:53;;;;;;;14.50;3.78;;;;;;;13.88;100.00;100062.69;6286302;22;20016;-63
2021/06/30 07:29:57;;;;;;;8.50;3.72;;;;;;;14.18;100.00;100064.75;6285954;22;20074;-61
2021/06/30 07:33:02;;;;;;;13.52;3.95;;;;;;;14.36;100.00;100058.81;6286416;22;20027;-61
2021/06/30 07:36:07;;;;;;;8.77;3.47;;;;;;;14.55;100.00;100058.47;6286271;22;20019;-61
2021/06/30 07:39:10;;;;;;;15.35;3.92;;;;;;;14.67;100.00;100066.47;6286161;22;20026;-61
2021/06/30 07:42:14;;;;;;;16.80;4.20;;;;;;;14.77;100.00;100053.78;6285863;22;20016;-61
2021/06/30 07:45:18;;;;;;;13.80;3.58;;;;;;;14.88;100.00;100053.09;6286391;22;20024;-61
2021/06/30 07:48:22;;;;;;;12.90;4.70;;;;;;;15.04;100.00;100056.00;6286452;22;20020;-61
2021/06/30 07:51:26;;;;;;;10.93;4.07;;;;;;;15.15;100.00;100061.69;6279216;22;20020;-61
2021/06/30 07:54:33;;;;;;;10.50;2.88;;;;;;;15.48;100.00;100051.91;6285999;22;20023;-61
2021/06/30 07:57:37;;;;;;;11.20;3.67;;;;;;;15.74;100.00;100053.25;6286037;22;20015;-61
2021/06/30 08:00:40;;;;;;;10.85;3.58;;;;;;;16.00;100.00;100053.09;6267343;22;20019;-59
2021/06/30 08:03:44;;;;;;;12.27;4.25;;;;;;;16.17;100.00;100056.69;6286862;22;20011;-61
2021/06/30 08:06:49;;;;;;;9.23;3.45;;;;;;;16.23;100.00;100051.84;6287926;22;20019;-61
2021/06/30 08:09:52;;;;;;;12.88;4.50;;;;;;;16.21;100.00;100043.16;6288327;22;20038;-59
2021/06/30 08:12:55;;;;;;;16.23;3.92;;;;;;;16.18;100.00;100044.16;6287900;22;20022;-61
2021/06/30 08:15:59;;;;;;;8.18;3.30;;;;;;;16.15;100.00;100042.38;6288162;22;20016;-61
2021/06/30 08:19:02;;;;;;;10.98;4.78;;;;;;;16.06;100.00;100039.03;6287773;22;20026;-61
2021/06/30 08:22:14;;;;;;;13.45;4.15;;;;;;;15.92;100.00;100040.78;6287625;22;20008;-61
2021/06/30 08:25:18;;;;;;;12.02;4.32;;;;;;;15.83;100.00;100041.78;6288177;22;20019;-60
2021/06/30 08:28:25;;;;;;;16.85;3.90;;;;;;;15.89;100.00;100036.22;6287932;22;20011;-60
2021/06/30 08:31:29;;;;;;;16.30;3.58;;;;;;;16.00;100.00;100035.47;6286960;22;20016;-61
2021/06/30 08:34:33;;;;;;;10.15;4.22;;;;;;;16.25;100.00;100031.66;6287256;22;20019;-60
2021/06/30 08:37:42;;;;;;;9.55;2.72;;;;;;;16.54;100.00;100036.78;6287098;22;20019;-60
2021/06/30 08:40:46;;;;;;;8.85;3.67;;;;;;;16.67;100.00;100042.66;6287601;22;20023;-60
2021/06/30 08:43:49;;;;;;;20.27;2.83;;;;;;;16.79;100.00;100035.72;6287547;22;20022;-63
2021/06/30 08:46:57;;;;;;;12.65;3.97;;;;;;;16.84;100.00;100034.97;6287595;22;20015;-63
2021/06/30 08:50:03;;;;;;;9.10;3.42;;;;;;;16.77;100.00;100031.91;6287775;22;20020;-63
2021/06/30 08:53:12;;;;;;;7.07;2.92;;;;;;;16.73;100.00;100037.00;6287692;22;20333;-63
2021/06/30 08:56:18;;;;;;;16.65;4.53;;;;;;;16.73;100.00;100037.00;6287389;22;20023;-63
2021/06/30 08:59:23;;;;;;;15.50;4.53;;;;;;;16.71;100.00;100033.94;6287248;22;20596;-60
2021/06/30 09:02:26;;;;;;;9.82;3.30;;;;;;;16.61;100.00;100042.66;6286912;22;20012;-63
2021/06/30 09:08:36;;;;;;;17.02;4.43;;;;;;;16.90;100.00;100040.56;6286514;22;20027;-63
2021/06/30 09:11:42;;;;;;;11.43;4.28;;;;;;;17.11;100.00;100034.13;6287213;22;20020;-63
2021/06/30 09:14:46;;;;;;;10.50;4.40;;;;;;;17.33;100.00;100036.09;6286955;22;20019;-63
2021/06/30 09:17:49;;;;;;;9.10;4.13;;;;;;;17.50;100.00;100036.81;6286970;22;20020;-63
2021/06/30 09:21:16;;;;;;;10.90;4.43;;;;;;;17.81;100.00;100039.22;6286939;22;20028;-63
2021/06/30 09:24:20;;;;;;;13.00;5.35;;;;;;;18.03;100.00;100033.44;6287093;22;20020;-63
2021/06/30 09:27:44;;;;;;;14.32;3.90;;;;;;;18.14;100.00;100024.16;6287042;22;20019;-62
2021/06/30 09:31:15;;;;;;;9.75;3.08;;;;;;;18.33;100.00;100025.03;6287047;22;20024;-63
2021/06/30 09:34:25;;;;;;;13.55;3.88;;;;;;;18.52;100.00;100025.91;6287274;22;20042;-62
2021/06/30 09:37:28;;;;;;;13.98;3.97;;;;;;;18.40;100.00;100020.88;6287102;22;20016;-62
2021/06/30 09:40:44;;;;;;;11.32;3.75;;;;;;;18.19;100.00;100024.09;6286678;22;20028;-62
2021/06/30 09:43:47;;;;;;;10.60;4.10;;;;;;;18.10;100.00;100030.06;6286908;22;20011;-62
2021/06/30 09:46:54;;;;;;;11.52;3.67;;;;;;;18.23;100.00;100025.88;6286906;22;20019;-62
2021/06/30 09:49:58;;;;;;;13.25;3.70;;;;;;;18.09;100.00;100025.72;6287316;22;20016;-62
2021/06/30 09:53:02;;;;;;;6.05;2.20;;;;;;;18.15;100.00;100028.47;6286972;22;20020;-62
2021/06/30 09:56:37;;;;;;;9.15;2.60;;;;;;;18.21;100.00;100025.63;6286677;22;20031;-62
2021/06/30 09:59:41;;;;;;;11.27;3.35;;;;;;;18.38;100.00;100026.28;6287015;22;20023;-63
2021/06/30 10:02:48;;;;;;;9.15;3.70;;;;;;;18.60;100.00;100035.31;6286865;22;20012;-62
2021/06/30 10:05:52;;;;;;;9.65;3.83;;;;;;;18.83;100.00;100024.59;6287160;22;20451;-62
2021/06/30 10:08:57;;;;;;;12.50;3.25;;;;;;;19.08;100.00;100028.19;6286799;22;20344;-63
2021/06/30 10:12:10;;;;;;;5.13;2.20;;;;;;;19.23;100.00;100025.72;6268046;22;20016;-63
2021/06/30 10:15:13;;;;;;;9.07;2.75;;;;;;;19.38;100.00;100031.72;6267948;22;20023;-63
2021/06/30 10:18:17;;;;;;;8.02;2.97;;;;;;;19.37;100.00;100027.34;6286943;22;20022;-63
2021/06/30 10:21:25;;;;;;;9.88;3.28;;;;;;;18.96;100.00;100038.06;6286541;22;20022;-63
2021/06/30 10:24:29;;;;;;;8.73;2.83;;;;;;;18.83;100.00;100033.84;6286632;22;20359;-63
2021/06/30 10:27:33;;;;;;;9.90;2.55;;;;;;;18.86;100.00;100029.94;6267641;22;20022;-63
2021/06/30 10:30:37;;;;;;;9.13;2.97;;;;;;;18.93;100.00;100034.22;6286730;22;20023;-63
2021/06/30 10:33:55;;;;;;;8.15;3.00;;;;;;;18.88;100.00;100035.06;6285757;22;20723;-63
2021/06/30 10:36:58;;;;;;;8.90;2.90;;;;;;;19.07;100.00;100029.47;6286225;22;20042;-63
2021/06/30 10:40:11;;;;;;;3.22;1.60;;;;;;;19.39;100.00;100025.53;6285964;22;20344;-63
2021/06/30 10:43:15;;;;;;;7.35;3.40;;;;;;;19.78;100.00;100027.06;6286462;22;20019;-63
2021/06/30 10:46:27;;;;;;;6.82;2.08;;;;;;;20.08;100.00;100010.69;6286085;22;20022;-63
2021/06/30 10:49:30;;;;;;;8.55;2.50;;;;;;;20.20;100.00;100012.06;6285680;22;20026;-64
2021/06/30 10:52:34;;;;;;;6.45;2.72;;;;;;;20.23;100.00;100010.97;6276064;22;20067;-63
2021/06/30 10:59:03;;;;;;;5.28;2.30;;;;;;;20.97;100.00;100010.72;6285984;22;20452;-62
2021/06/30 11:02:11;;;;;;;6.40;2.60;;;;;;;21.12;100.00;100010.94;6267906;22;20039;-63
2021/06/30 11:05:14;;;;;;;5.80;1.73;;;;;;;20.87;100.00;100012.44;6286537;22;20459;-63
2021/06/30 11:08:37;;;;;;;6.00;2.17;;;;;;;20.85;100.00;100015.06;6286537;22;20022;-63
2021/06/30 11:11:47;;;;;;;4.05;1.17;;;;;;;20.96;100.00;100003.50;6286245;22;20360;-63
2021/06/30 11:14:50;;;;;;;13.40;3.35;;;;;;;21.08;100.00;100010.53;6286255;22;20026;-63
2021/06/30 11:17:53;;;;;;;7.97;1.95;;;;;;;20.89;100.00;100003.41;6286499;22;20420;-63
2021/06/30 11:21:03;;;;;;;7.78;1.73;;;;;;;20.72;100.00;99995.22;6286534;22;20027;-63
2021/06/30 11:27:45;;;;;;;3.83;1.45;;;;;;;21.21;100.00;100000.47;6285962;22;20018;-63
2021/06/30 11:30:49;;;;;;;5.63;1.75;;;;;;;20.84;100.00;99996.53;6267599;22;20039;-63
2021/06/30 11:34:19;;;;;;;4.50;1.40;;;;;;;20.53;100.00;100005.84;6286110;22;20042;-63
2021/06/30 11:37:23;;;;;;;;;;;;;;;20.36;100.00;99996.88;6286778;22;20047;-63
2021/06/30 11:43:39;;;;;;;6.53;1.80;;;;;;;20.02;100.00;99990.22;6287967;22;20440;-64
2021/06/30 11:46:47;;;;;;;3.58;1.55;;;;;;;19.77;100.00;100003.72;6269389;22;20019;-62
2021/06/30 11:50:01;;;;;;;6.28;1.90;;;;;;;20.37;100.00;99987.09;6269611;22;20027;-63
2021/06/30 11:53:05;;;;;;;7.57;1.90;;;;;;;20.44;100.00;99991.38;6288283;22;20326;-63
2021/06/30 11:56:10;;;;;;;5.32;1.88;;;;;;;20.06;100.00;99985.00;6288454;22;20090;-63
2021/06/30 11:59:19;;;;;;;4.88;0.90;;;;;;;20.22;100.00;99984.78;6288034;22;20026;-63
2021/06/30 12:02:23;;;;;;;3.83;1.67;;;;;;;20.21;100.00;99986.06;6288112;22;20015;-63
2021/06/30 12:05:35;;;;;;;7.75;1.52;;;;;;;20.06;100.00;99979.34;6287971;22;20023;-63
2021/06/30 12:08:39;;;;;;;5.57;1.90;;;;;;;20.65;100.00;99973.22;6288011;22;20455;-64
2021/06/30 12:11:51;;;;;;;4.53;1.15;;;;;;;20.86;100.00;99982.59;6287452;22;20052;-63
2021/06/30 12:14:55;;;;;;;15.18;1.98;;;;;;;20.54;100.00;99984.75;6288018;22;20023;-63
2021/06/30 12:17:59;;;;;;;5.43;1.90;;;;;;;20.82;100.00;99976.50;6287929;22;20043;-64
2021/06/30 12:21:02;;;;;;;5.28;1.65;;;;;;;21.22;100.00;99982.19;6287919;22;20027;-63
2021/06/30 12:24:18;;;;;;;4.38;1.27;;;;;;;21.35;100.00;99976.50;6287834;22;20113;-63
2021/06/30 12:27:22;;;;;;;3.40;1.00;;;;;;;21.88;100.00;99983.59;6288142;22;20474;-64
2021/06/30 12:30:31;;;;;;;11.35;1.88;;;;;;;22.43;100.00;99975.78;6287824;22;20023;-63
2021/06/30 12:33:34;;;;;;;5.85;1.25;;;;;;;22.83;100.00;99984.81;6286884;22;20023;-63
2021/06/30 12:36:38;;;;;;;4.20;1.73;;;;;;;23.50;100.00;99978.03;6286943;22;20027;-63
2021/06/30 12:39:42;;;;;;;5.47;1.58;;;;;;;23.83;100.00;99977.75;6287869;22;20027;-64
2021/06/30 12:43:04;;;;;;;6.07;1.73;;;;;;;23.59;100.00;99980.31;6286689;22;20015;-63
2021/06/30 12:46:19;;;;;;;5.93;1.80;;;;;;;23.60;100.00;99971.25;6287647;22;20042;-63
2021/06/30 12:49:22;;;;;;;3.55;1.60;;;;;;;23.72;100.00;99985.88;6286858;22;20027;-63
2021/06/30 12:52:26;;;;;;;4.28;1.40;;;;;;;23.86;100.00;99982.31;6277371;22;20022;-63
2021/06/30 12:55:29;;;;;;;2.97;1.33;;;;;;;23.57;100.00;99983.72;6287561;22;20023;-64
2021/06/30 12:58:48;;;;;;;5.00;1.52;;;;;;;23.10;100.00;99986.13;6287782;22;20023;-69
2021/06/30 13:01:51;;;;;;;5.18;1.10;;;;;;;22.84;100.00;99986.34;6268329;22;20023;-63
2021/06/30 13:04:55;;;;;;;7.97;1.33;;;;;;;22.45;100.00;99988.13;6287429;22;20030;-64
2021/06/30 13:07:58;;;;;;;5.18;1.65;;;;;;;22.14;100.00;99989.16;6287080;22;20042;-64
2021/06/30 13:11:10;;;;;;;7.32;1.60;;;;;;;21.85;100.00;99987.53;6287140;22;20022;-63
2021/06/30 13:14:21;;;;;;;8.48;1.85;;;;;;;21.65;100.00;99985.38;6286789;22;20340;-64
2021/06/30 13:17:25;;;;;;;6.82;2.22;;;;;;;21.45;100.00;99991.75;6287187;22;20356;-64
2021/06/30 13:20:29;;;;;;;6.63;2.00;;;;;;;21.22;100.00;99996.34;6286809;22;20026;-63
2021/06/30 13:23:37;;;;;;;6.22;2.05;;;;;;;21.04;100.00;99993.09;6287095;22;20023;-60
2021/06/30 13:36:59;;;;;;;3.50;1.52;;;;;;;20.96;100.00;99983.69;6286769;22;20467;-62
2021/06/30 13:40:04;;;;;;;4.45;1.58;;;;;;;21.02;100.00;99973.03;6283591;22;20027;-62
2021/06/30 13:43:09;;;;;;;3.65;1.58;;;;;;;21.00;100.00;99986.97;6268490;22;20023;-62
2021/06/30 13:46:17;;;;;;;5.53;1.58;;;;;;;20.91;100.00;99978.91;6287003;22;20340;-64
2021/06/30 13:49:23;;;;;;;4.47;1.63;;;;;;;20.76;100.00;99977.91;6286259;22;20043;-63
2021/06/30 13:52:28;;;;;;;5.22;1.40;;;;;;;20.59;100.00;99985.94;6276710;22;20050;-63
2021/06/30 13:55:32;;;;;;;2.97;1.10;;;;;;;20.39;100.00;99981.66;6286593;22;20463;-62
2021/06/30 13:58:36;;;;;;;2.65;1.17;;;;;;;20.30;100.00;99979.25;6286942;22;20027;-62
2021/06/30 14:01:40;;;;;;;3.97;1.35;;;;;;;20.32;100.00;99990.78;6286089;22;20444;-62
2021/06/30 14:04:43;;;;;;;16.02;1.35;;;;;;;20.38;100.00;99989.38;6286839;22;20015;-61
2021/06/30 14:07:47;;;;;;;6.43;1.13;;;;;;;20.46;100.00;99983.88;6287003;22;20328;-62
2021/06/30 14:11:01;;;;;;;2.95;0.88;;;;;;;20.61;100.00;99984.13;6285775;22;20030;-62
2021/06/30 14:14:05;;;;;;;4.97;1.63;;;;;;;20.85;100.00;99981.09;6286160;22;20344;-60
2021/06/30 14:17:10;;;;;;;5.18;0.77;;;;;;;21.25;100.00;99978.25;6286229;22;20032;-61
2021/06/30 14:20:13;;;;;;;4.78;1.58;;;;;;;22.05;100.00;99972.59;6267040;22;20467;-58
2021/06/30 14:23:23;;;;;;;3.55;0.98;;;;;;;22.46;100.00;99975.44;6286070;22;20018;-60
2021/06/30 14:26:27;;;;;;;4.37;1.27;;;;;;;22.59;100.00;99978.22;6285556;22;20021;-61
2021/06/30 14:29:30;;;;;;;3.47;1.02;;;;;;;22.50;100.00;99975.09;6286062;22;20554;-61
2021/06/30 14:32:35;;;;;;;4.15;1.05;;;;;;;22.98;100.00;99976.38;6285979;22;20455;-61
2021/06/30 14:35:38;;;;;;;5.10;1.40;;;;;;;22.81;100.00;99970.41;6285669;22;20026;-61
2021/06/30 14:38:41;;;;;;;3.15;1.05;;;;;;;22.67;100.00;99966.16;6285940;22;20027;-61